Time;durP1;ratioP1;P1;durP2;ratioP2;P2;SDS_P1;SDS_P2;PMS_P1;PMS_P2;Temp;Humidity;BMP_temperature;BMP_pressure;BME280_temperature;BME280_humidity;BME280_pressure;Samples;Min_cycle;Max_cycle;Signal;HPM_P1;HPM_P2
2022/08/31 00:06:06;;;;;;;1.40;1.30;;;15.60;99.90;;;;;;5019793;28;20120;-66
2022/08/31 00:08:33;;;;;;;1.40;1.30;;;15.60;99.90;;;;;;4988347;28;20561;-67
2022/08/31 00:10:59;;;;;;;8.60;1.55;;;15.60;99.90;;;;;;5017191;28;20140;-66
2022/08/31 00:13:27;;;;;;;3.78;1.20;;;15.60;99.90;;;;;;5002684;28;20037;-66
2022/08/31 00:15:54;;;;;;;3.38;1.40;;;15.50;99.90;;;;;;4987413;28;20046;-66
2022/08/31 00:18:20;;;;;;;4.60;1.20;;;15.60;99.90;;;;;;5016472;28;20050;-67
2022/08/31 00:20:47;;;;;;;1.45;1.02;;;15.60;99.90;;;;;;5017009;28;20030;-67
2022/08/31 00:23:14;;;;;;;2.83;1.20;;;15.50;99.90;;;;;;4984390;28;20067;-67
2022/08/31 00:25:43;;;;;;;2.38;1.30;;;15.50;99.90;;;;;;5017288;28;20144;-67
2022/08/31 00:28:09;;;;;;;3.55;1.25;;;15.50;99.90;;;;;;5001487;28;20057;-68
2022/08/31 00:30:35;;;;;;;3.30;1.30;;;15.50;99.90;;;;;;5018259;28;20095;-66
2022/08/31 00:33:02;;;;;;;1.75;1.38;;;15.40;99.90;;;;;;4987557;28;20038;-66
2022/08/31 00:35:29;;;;;;;2.35;1.20;;;15.40;99.90;;;;;;5020057;28;20068;-66
2022/08/31 00:37:55;;;;;;;2.28;0.90;;;15.40;99.90;;;;;;5001283;28;20045;-67
2022/08/31 00:40:22;;;;;;;1.63;1.10;;;15.30;99.90;;;;;;5002221;28;20042;-67
2022/08/31 00:42:47;;;;;;;1.55;1.00;;;15.30;99.90;;;;;;5002444;28;20049;-66
2022/08/31 00:45:14;;;;;;;3.60;1.10;;;15.30;99.90;;;;;;5019511;28;20050;-66
2022/08/31 00:47:39;;;;;;;2.78;0.95;;;15.20;99.90;;;;;;5019665;28;20250;-66
2022/08/31 00:50:08;;;;;;;2.70;1.13;;;15.20;99.90;;;;;;4986939;28;20142;-66
2022/08/31 00:52:39;;;;;;;1.42;0.82;;;15.10;99.90;;;;;;5016203;28;20443;-66
2022/08/31 00:55:13;;;;;;;0.90;0.82;;;15.00;99.90;;;;;;5004764;28;20116;-66
2022/08/31 00:57:41;;;;;;;2.65;0.80;;;15.00;99.90;;;;;;5019183;28;20494;-66
2022/08/31 01:00:12;;;;;;;1.40;1.30;;;15.00;99.90;;;;;;5000046;28;20091;-66
2022/08/31 01:02:38;;;;;;;1.52;0.90;;;14.80;99.90;;;;;;5021334;28;20034;-66
2022/08/31 01:05:05;;;;;;;2.20;0.90;;;14.80;99.90;;;;;;5005285;28;20057;-66
2022/08/31 01:07:31;;;;;;;2.40;1.08;;;14.70;99.90;;;;;;4992427;28;20053;-66
2022/08/31 01:09:58;;;;;;;1.75;0.75;;;14.70;99.90;;;;;;5005440;28;20350;-66
2022/08/31 01:12:25;;;;;;;2.85;0.95;;;14.70;99.90;;;;;;5023207;28;20108;-66
2022/08/31 01:14:51;;;;;;;1.17;1.05;;;14.60;99.90;;;;;;5021082;28;20446;-66
2022/08/31 01:17:18;;;;;;;1.83;1.20;;;14.60;99.90;;;;;;5021614;28;20518;-67
2022/08/31 01:20:27;;;;;;;2.70;1.05;;;14.50;99.90;;;;;;5019918;28;20042;-67
2022/08/31 01:23:09;;;;;;;1.63;0.88;;;14.50;99.90;;;;;;4986856;28;20049;-67
2022/08/31 01:25:37;;;;;;;2.22;1.02;;;14.40;99.90;;;;;;5021034;28;20330;-66
2022/08/31 01:28:06;;;;;;;1.45;1.00;;;14.40;99.90;;;;;;4989157;28;20052;-66
2022/08/31 01:30:32;;;;;;;2.42;1.20;;;14.40;99.90;;;;;;5005154;28;20041;-67
2022/08/31 01:32:59;;;;;;;1.35;0.93;;;14.30;99.90;;;;;;5023910;28;20039;-66
2022/08/31 01:35:26;;;;;;;1.27;0.73;;;14.30;99.90;;;;;;5021616;28;20045;-67
2022/08/31 01:37:52;;;;;;;0.75;0.60;;;14.20;99.90;;;;;;5022903;28;20034;-67
2022/08/31 01:40:18;;;;;;;1.38;0.90;;;14.20;99.90;;;;;;5020064;28;20411;-66
2022/08/31 01:42:44;;;;;;;3.35;1.00;;;14.10;99.90;;;;;;5005128;28;20041;-66
2022/08/31 01:45:11;;;;;;;1.27;0.82;;;14.10;99.90;;;;;;5023628;28;20535;-66
2022/08/31 01:47:39;;;;;;;3.28;0.90;;;14.00;99.90;;;;;;5023948;28;20132;-66
2022/08/31 01:50:06;;;;;;;1.00;0.90;;;14.00;99.90;;;;;;5019041;28;20491;-66
2022/08/31 01:52:33;;;;;;;1.63;0.88;;;14.00;99.90;;;;;;5003513;28;20142;-66
2022/08/31 01:55:02;;;;;;;0.90;0.80;;;14.00;99.90;;;;;;5004941;28;20041;-66
2022/08/31 01:57:28;;;;;;;0.00;0.00;;;13.90;99.90;;;;;;5023697;28;20048;-66
2022/08/31 01:59:54;;;;;;;0.00;0.00;;;13.90;99.90;;;;;;5022917;28;20041;-67
2022/08/31 02:02:19;;;;;;;0.00;0.00;;;13.80;99.90;;;;;;5021588;28;20212;-66
2022/08/31 02:04:46;;;;;;;0.00;0.00;;;13.80;99.90;;;;;;5021808;28;20486;-66
2022/08/31 02:07:12;;;;;;;0.00;0.00;;;13.70;99.90;;;;;;5003811;28;20042;-66
2022/08/31 02:09:37;;;;;;;0.03;0.03;;;13.70;99.90;;;;;;5019847;28;20069;-66
2022/08/31 02:12:03;;;;;;;0.00;0.00;;;13.60;99.90;;;;;;5006190;28;20056;-66
2022/08/31 02:14:29;;;;;;;0.00;0.00;;;13.60;99.90;;;;;;5021366;28;20033;-66
2022/08/31 02:16:55;;;;;;;0.00;0.00;;;13.50;99.90;;;;;;5021081;28;20061;-66
2022/08/31 02:19:20;;;;;;;0.00;0.00;;;13.50;99.90;;;;;;5006319;28;20077;-66
2022/08/31 02:21:46;;;;;;;0.00;0.00;;;13.40;99.90;;;;;;5022056;28;20052;-66
2022/08/31 02:24:12;;;;;;;0.10;0.10;;;13.40;99.90;;;;;;5006828;28;20049;-66
2022/08/31 02:26:38;;;;;;;0.00;0.00;;;13.30;99.90;;;;;;5021696;28;20037;-66
2022/08/31 02:29:06;;;;;;;0.10;0.10;;;13.30;99.90;;;;;;5005276;28;20123;-66
2022/08/31 02:31:32;;;;;;;0.10;0.10;;;13.20;99.90;;;;;;5023537;28;20048;-66
2022/08/31 02:33:57;;;;;;;0.08;0.08;;;13.20;99.90;;;;;;5004956;28;20034;-66
2022/08/31 02:36:23;;;;;;;0.00;0.00;;;13.20;99.90;;;;;;5005093;28;20525;-66
2022/08/31 02:38:49;;;;;;;0.10;0.10;;;13.10;99.90;;;;;;5004154;28;20065;-66
2022/08/31 02:41:16;;;;;;;0.00;0.00;;;13.00;99.90;;;;;;5021478;28;20079;-66
2022/08/31 02:43:42;;;;;;;2.45;0.85;;;13.00;99.90;;;;;;5020362;28;22099;-66
2022/08/31 02:46:08;;;;;;;3.88;0.70;;;13.00;99.90;;;;;;5022659;28;20037;-66
2022/08/31 02:48:34;;;;;;;4.85;1.10;;;12.90;99.90;;;;;;5019378;28;20658;-66
2022/08/31 02:51:06;;;;;;;1.55;1.15;;;12.90;99.90;;;;;;5021103;28;20033;-67
2022/08/31 02:53:32;;;;;;;1.08;0.98;;;12.80;99.90;;;;;;5003850;28;20395;-66
2022/08/31 02:55:58;;;;;;;1.15;0.95;;;12.80;99.90;;;;;;5002687;28;20044;-66
2022/08/31 02:58:24;;;;;;;0.90;0.90;;;12.80;99.90;;;;;;5022021;28;20514;-66
2022/08/31 03:00:50;;;;;;;1.27;0.75;;;12.70;99.90;;;;;;5047547;28;20041;-67
2022/08/31 03:03:16;;;;;;;1.92;1.10;;;12.70;99.90;;;;;;5030652;28;20064;-67
2022/08/31 03:05:41;;;;;;;1.60;1.27;;;12.60;99.90;;;;;;5025349;28;20045;-66
2022/08/31 03:08:07;;;;;;;0.88;0.88;;;12.50;99.90;;;;;;5021399;28;20652;-67
2022/08/31 03:10:33;;;;;;;1.63;1.05;;;12.40;99.90;;;;;;5003681;28;20034;-67
2022/08/31 03:12:59;;;;;;;1.95;1.10;;;12.40;99.90;;;;;;5003498;28;20077;-66
2022/08/31 03:15:25;;;;;;;2.78;1.10;;;12.40;99.90;;;;;;5003410;28;20572;-66
2022/08/31 03:17:51;;;;;;;1.35;1.00;;;12.30;99.90;;;;;;5005967;28;20680;-66
2022/08/31 03:20:19;;;;;;;1.10;1.00;;;12.30;99.90;;;;;;5001577;28;20431;-66
2022/08/31 03:22:45;;;;;;;4.57;1.10;;;12.20;99.90;;;;;;5018398;28;20037;-66
2022/08/31 03:25:11;;;;;;;1.00;1.00;;;12.10;99.90;;;;;;5020014;28;20052;-66
2022/08/31 03:27:37;;;;;;;3.47;1.20;;;12.10;99.90;;;;;;5018775;28;20356;-66
2022/08/31 03:30:06;;;;;;;2.55;1.20;;;12.10;99.90;;;;;;5021355;28;20384;-66
2022/08/31 03:32:32;;;;;;;1.85;1.48;;;12.00;99.90;;;;;;5001870;28;20107;-66
2022/08/31 03:34:58;;;;;;;2.20;1.40;;;11.90;99.90;;;;;;5020918;28;20125;-67
2022/08/31 03:37:25;;;;;;;3.03;1.35;;;11.90;99.90;;;;;;5002412;28;20492;-66
2022/08/31 03:39:51;;;;;;;2.55;1.40;;;11.80;99.90;;;;;;5020876;28;20052;-66
2022/08/31 03:42:17;;;;;;;3.78;1.23;;;11.80;99.90;;;;;;4988048;28;20385;-66
2022/08/31 03:44:43;;;;;;;1.42;1.33;;;11.70;99.90;;;;;;4985573;28;20041;-66
2022/08/31 03:47:09;;;;;;;2.17;1.10;;;11.70;99.90;;;;;;5006161;28;20041;-66
2022/08/31 03:49:35;;;;;;;2.05;1.40;;;11.70;99.90;;;;;;5003626;28;20541;-66
2022/08/31 03:52:01;;;;;;;1.50;1.13;;;11.70;99.90;;;;;;5020470;28;20383;-66
2022/08/31 03:54:27;;;;;;;1.92;1.23;;;11.60;99.90;;;;;;5019057;28;20076;-66
2022/08/31 03:56:53;;;;;;;3.63;1.52;;;11.60;99.90;;;;;;5018778;28;20477;-66
2022/08/31 03:59:18;;;;;;;2.53;1.33;;;11.60;99.90;;;;;;5017416;28;20041;-66
2022/08/31 04:01:45;;;;;;;2.63;1.50;;;11.60;99.90;;;;;;5018808;28;20040;-67
2022/08/31 04:04:14;;;;;;;2.38;1.48;;;11.60;99.90;;;;;;5019976;28;20044;-66
2022/08/31 04:06:41;;;;;;;2.03;1.70;;;11.50;99.90;;;;;;5019866;28;20120;-66
2022/08/31 04:09:07;;;;;;;1.60;1.45;;;11.50;99.90;;;;;;5020715;28;20037;-66
2022/08/31 04:11:33;;;;;;;1.80;1.50;;;11.50;99.90;;;;;;5019982;28;20044;-66
2022/08/31 04:13:59;;;;;;;1.73;1.48;;;11.50;99.90;;;;;;5018924;28;20041;-66
2022/08/31 04:16:25;;;;;;;1.90;1.60;;;11.50;99.90;;;;;;4988369;28;20038;-66
2022/08/31 04:18:52;;;;;;;2.75;1.35;;;11.40;99.90;;;;;;5001675;28;20084;-66
2022/08/31 04:21:24;;;;;;;1.75;1.42;;;11.40;99.90;;;;;;5001590;28;20441;-66
2022/08/31 04:23:51;;;;;;;2.35;1.70;;;11.30;99.90;;;;;;5018895;28;21344;-66
2022/08/31 04:26:27;;;;;;;1.92;1.70;;;11.30;99.90;;;;;;5003202;28;20052;-66
2022/08/31 04:28:54;;;;;;;2.03;1.70;;;11.30;99.90;;;;;;5019103;28;20184;-66
2022/08/31 04:31:21;;;;;;;1.92;1.60;;;11.30;99.90;;;;;;5017236;28;20120;-66
2022/08/31 04:33:47;;;;;;;1.70;1.42;;;11.30;99.90;;;;;;5019330;28;20041;-66
2022/08/31 04:36:16;;;;;;;2.00;1.80;;;11.30;99.90;;;;;;5020059;28;20064;-67
2022/08/31 04:38:43;;;;;;;2.75;1.65;;;11.20;99.90;;;;;;5018631;28;20037;-66
2022/08/31 04:41:11;;;;;;;2.63;1.55;;;11.20;99.90;;;;;;5005845;28;20613;-66
2022/08/31 04:43:39;;;;;;;3.03;1.70;;;11.20;99.90;;;;;;5005915;28;20116;-66
2022/08/31 04:46:07;;;;;;;3.42;1.88;;;11.10;99.90;;;;;;5024158;28;20057;-66
2022/08/31 04:48:33;;;;;;;3.08;1.75;;;11.10;99.90;;;;;;5005031;28;20045;-66
2022/08/31 04:51:07;;;;;;;3.38;1.50;;;10.50;99.90;;;;;;5020145;28;20038;-66
2022/08/31 04:53:33;;;;;;;1.92;1.52;;;11.10;99.90;;;;;;5024412;28;20045;-66
2022/08/31 04:56:13;;;;;;;5.00;1.70;;;11.10;99.90;;;;;;5024310;28;20041;-66
2022/08/31 04:58:39;;;;;;;3.85;1.83;;;11.00;99.90;;;;;;5020324;28;20399;-66
2022/08/31 05:01:08;;;;;;;2.15;1.63;;;11.00;99.90;;;;;;5006855;28;20546;-66
2022/08/31 05:03:34;;;;;;;9.30;2.13;;;11.00;99.90;;;;;;5023282;28;20041;-66
2022/08/31 05:06:00;;;;;;;3.10;1.92;;;11.00;99.90;;;;;;5021848;28;20045;-66
2022/08/31 05:08:26;;;;;;;3.70;1.60;;;10.90;99.90;;;;;;5022840;28;20037;-66
2022/08/31 05:10:52;;;;;;;2.40;1.98;;;11.00;99.90;;;;;;5005956;28;20103;-66
2022/08/31 05:13:18;;;;;;;2.40;1.90;;;10.90;99.90;;;;;;5008702;28;20045;-65
2022/08/31 05:15:44;;;;;;;3.35;1.80;;;10.90;99.90;;;;;;5024039;28;20038;-66
2022/08/31 05:18:11;;;;;;;5.40;1.83;;;10.90;99.90;;;;;;5004093;28;20073;-66
2022/08/31 05:20:38;;;;;;;4.03;1.75;;;10.90;99.90;;;;;;5005850;28;20091;-66
2022/08/31 05:23:04;;;;;;;2.08;1.63;;;10.90;99.90;;;;;;5005072;28;20050;-66
2022/08/31 05:25:30;;;;;;;3.72;2.10;;;10.90;99.90;;;;;;5002704;28;20430;-66
2022/08/31 05:27:56;;;;;;;2.03;1.60;;;10.90;99.90;;;;;;5003866;28;20063;-66
2022/08/31 05:30:22;;;;;;;4.65;2.20;;;10.90;99.90;;;;;;5006836;28;20498;-66
2022/08/31 05:32:48;;;;;;;7.75;2.00;;;10.90;99.90;;;;;;4989439;28;20037;-66
2022/08/31 05:35:14;;;;;;;2.60;1.70;;;10.90;99.90;;;;;;4991260;28;20041;-66
2022/08/31 05:37:41;;;;;;;5.68;2.20;;;10.90;99.90;;;;;;5023677;28;20041;-66
2022/08/31 05:40:08;;;;;;;2.35;1.95;;;10.90;99.90;;;;;;5020541;28;20083;-66
2022/08/31 05:42:34;;;;;;;3.45;2.05;;;10.90;99.90;;;;;;4988007;28;20498;-66
2022/08/31 05:45:00;;;;;;;5.20;2.13;;;10.90;99.90;;;;;;5021562;28;20042;-66
2022/08/31 05:47:26;;;;;;;2.95;1.88;;;10.90;99.90;;;;;;5021553;28;20200;-66
2022/08/31 05:49:52;;;;;;;3.13;1.90;;;10.90;99.90;;;;;;4991285;28;20037;-66
2022/08/31 05:52:18;;;;;;;3.55;1.65;;;11.00;99.90;;;;;;5006010;28;20047;-66
2022/08/31 05:54:44;;;;;;;3.90;2.00;;;11.00;99.90;;;;;;5020749;28;20387;-66
2022/08/31 05:57:10;;;;;;;2.78;2.13;;;11.00;99.90;;;;;;5022365;28;20123;-66
2022/08/31 05:59:38;;;;;;;3.50;1.90;;;11.00;99.90;;;;;;5021712;28;20045;-66
2022/08/31 06:02:04;;;;;;;2.58;2.10;;;11.10;99.90;;;;;;5006074;28;20033;-66
2022/08/31 06:04:30;;;;;;;2.40;2.00;;;11.10;99.90;;;;;;5022497;28;20037;-66
2022/08/31 06:06:57;;;;;;;3.00;1.83;;;11.20;99.90;;;;;;5023677;28;20041;-66
2022/08/31 06:09:22;;;;;;;2.47;2.10;;;11.20;99.90;;;;;;5021066;28;20041;-66
2022/08/31 06:11:50;;;;;;;2.08;1.88;;;11.30;99.90;;;;;;5020319;28;20446;-66
2022/08/31 06:14:16;;;;;;;4.85;2.05;;;11.40;99.90;;;;;;4991734;28;20461;-66
2022/08/31 06:16:44;;;;;;;4.05;1.90;;;11.40;99.90;;;;;;5018974;28;20168;-66
2022/08/31 06:19:10;;;;;;;2.38;2.10;;;11.50;99.90;;;;;;5004999;28;20116;-66
2022/08/31 06:21:39;;;;;;;3.85;1.73;;;11.60;99.90;;;;;;5012873;28;20026;-66
2022/08/31 06:24:06;;;;;;;2.63;2.35;;;11.60;99.90;;;;;;5002544;28;20044;-66
2022/08/31 06:26:33;;;;;;;2.22;1.80;;;11.70;99.90;;;;;;4987127;28;20056;-66
2022/08/31 06:29:03;;;;;;;3.10;2.03;;;11.80;99.90;;;;;;4987938;28;20045;-66
2022/08/31 06:31:32;;;;;;;4.28;1.75;;;12.00;99.90;;;;;;5018956;28;20037;-66
2022/08/31 06:33:58;;;;;;;4.32;1.80;;;12.10;99.90;;;;;;5019324;28;20033;-66
2022/08/31 06:36:27;;;;;;;4.18;2.10;;;12.10;99.90;;;;;;5010106;28;20037;-66
2022/08/31 06:38:54;;;;;;;2.55;1.83;;;12.20;99.90;;;;;;5003718;28;20048;-66
2022/08/31 06:41:43;;;;;;;3.40;2.20;;;12.30;99.90;;;;;;5022187;28;20396;-66
2022/08/31 06:44:11;;;;;;;5.03;1.90;;;12.50;99.90;;;;;;5020143;28;20064;-65
2022/08/31 06:46:38;;;;;;;3.97;1.95;;;12.60;99.90;;;;;;5005582;28;20186;-66
2022/08/31 06:49:05;;;;;;;3.83;2.30;;;12.70;99.90;;;;;;5020462;28;20124;-65
2022/08/31 06:51:35;;;;;;;5.60;1.80;;;12.80;99.90;;;;;;5002347;28;20074;-66
2022/08/31 06:54:02;;;;;;;2.95;2.13;;;13.00;99.90;;;;;;4996197;28;20048;-66
2022/08/31 06:56:28;;;;;;;2.50;1.65;;;13.10;99.90;;;;;;5012798;28;20121;-66
2022/08/31 06:58:54;;;;;;;5.90;2.00;;;13.20;99.90;;;;;;5011145;28;20354;-66
2022/08/31 07:01:27;;;;;;;3.85;1.90;;;13.40;99.90;;;;;;5011411;28;20052;-66
2022/08/31 07:03:57;;;;;;;4.60;1.90;;;13.50;99.90;;;;;;5012290;28;20135;-66
2022/08/31 07:06:26;;;;;;;3.78;2.17;;;13.60;99.90;;;;;;5011618;28;20077;-66
2022/08/31 07:08:56;;;;;;;3.00;2.15;;;13.80;99.90;;;;;;5014034;28;20042;-65
2022/08/31 07:11:25;;;;;;;3.05;2.10;;;13.90;99.90;;;;;;5002600;28;20048;-66
2022/08/31 07:13:53;;;;;;;2.92;2.00;;;14.10;99.90;;;;;;4995069;28;20048;-66
2022/08/31 07:16:21;;;;;;;2.45;1.77;;;14.20;99.90;;;;;;5010823;28;20045;-65
2022/08/31 07:18:48;;;;;;;2.10;1.77;;;14.40;99.90;;;;;;4993540;28;20050;-66
2022/08/31 07:21:27;;;;;;;1.88;1.70;;;14.50;99.90;;;;;;4994894;28;20040;-66
2022/08/31 07:23:55;;;;;;;2.75;1.60;;;14.60;99.90;;;;;;5012789;28;20049;-66
2022/08/31 07:26:24;;;;;;;5.50;2.25;;;14.80;99.90;;;;;;5011293;28;20045;-66
2022/08/31 07:28:52;;;;;;;3.33;1.48;;;15.00;99.90;;;;;;4994085;28;20104;-66
2022/08/31 07:31:24;;;;;;;2.28;1.52;;;15.20;99.90;;;;;;5012433;28;20046;-66
2022/08/31 07:33:54;;;;;;;2.67;1.47;;;15.40;99.90;;;;;;5011470;28;20042;-66
2022/08/31 07:36:22;;;;;;;3.65;1.52;;;15.60;99.90;;;;;;5013092;28;20622;-66
2022/08/31 07:44:19;;;;;;;2.83;1.30;;;16.20;99.90;;;;;;4999186;28;20046;-66
2022/08/31 07:46:47;;;;;;;7.78;1.48;;;16.30;99.90;;;;;;5011266;28;20049;-66
2022/08/31 07:49:14;;;;;;;3.08;1.67;;;16.60;99.90;;;;;;4992530;28;20044;-66
2022/08/31 07:51:49;;;;;;;2.15;1.40;;;16.70;99.90;;;;;;4994171;28;20099;-66
2022/08/31 07:54:19;;;;;;;1.95;1.25;;;16.90;99.90;;;;;;5011725;28;20050;-66
2022/08/31 07:56:49;;;;;;;2.97;1.40;;;17.10;99.90;;;;;;4978869;28;20040;-66
2022/08/31 07:59:20;;;;;;;3.75;1.63;;;17.30;99.90;;;;;;5010610;28;20057;-66
2022/08/31 08:01:47;;;;;;;2.00;1.00;;;17.40;99.90;;;;;;5007209;28;20120;-66
2022/08/31 08:04:24;;;;;;;2.70;1.10;;;17.60;99.90;;;;;;5011179;28;20037;-66
2022/08/31 08:06:54;;;;;;;12.75;1.40;;;17.70;99.90;;;;;;4994597;28;20048;-66
2022/08/31 08:09:29;;;;;;;3.20;1.38;;;17.90;99.90;;;;;;5005835;28;20491;-66
2022/08/31 08:11:57;;;;;;;2.72;1.13;;;18.00;99.90;;;;;;4993344;28;20033;-66
2022/08/31 08:14:24;;;;;;;1.20;1.00;;;18.10;99.90;;;;;;5010535;28;20025;-66
2022/08/31 08:16:50;;;;;;;2.95;0.98;;;18.30;99.90;;;;;;4993484;28;20045;-66
2022/08/31 08:19:16;;;;;;;2.90;1.10;;;18.40;99.90;;;;;;4995479;28;20049;-66
2022/08/31 08:21:44;;;;;;;3.25;1.25;;;18.30;99.90;;;;;;4994211;28;20053;-66
2022/08/31 08:24:11;;;;;;;1.70;1.27;;;18.40;99.90;;;;;;4993380;28;20038;-66
2022/08/31 08:26:37;;;;;;;2.47;1.23;;;18.50;99.90;;;;;;4993524;28;20505;-66
2022/08/31 08:29:06;;;;;;;1.75;1.42;;;18.60;99.90;;;;;;5011645;28;20034;-67
2022/08/31 08:31:32;;;;;;;4.55;1.10;;;18.70;99.90;;;;;;4982233;28;20040;-66
2022/08/31 08:33:57;;;;;;;5.82;1.58;;;18.80;99.90;;;;;;5017846;28;20042;-66
2022/08/31 08:36:24;;;;;;;5.68;1.52;;;18.80;99.90;;;;;;5011626;28;20038;-66
2022/08/31 08:38:52;;;;;;;2.10;1.48;;;18.90;99.90;;;;;;5018871;28;20034;-67
2022/08/31 08:41:26;;;;;;;5.22;1.40;;;19.00;99.90;;;;;;4994550;28;20041;-67
2022/08/31 08:43:56;;;;;;;3.67;1.08;;;19.20;99.90;;;;;;5000605;28;20153;-67
2022/08/31 08:46:47;;;;;;;2.90;1.08;;;19.30;99.90;;;;;;4992760;28;20402;-67
2022/08/31 08:49:15;;;;;;;5.35;1.08;;;19.40;99.80;;;;;;5010440;28;20491;-67
2022/08/31 08:51:42;;;;;;;3.88;1.20;;;19.60;99.90;;;;;;5012465;28;20045;-67
2022/08/31 08:54:12;;;;;;;3.10;0.95;;;19.70;99.50;;;;;;4991899;28;20061;-67
2022/08/31 08:56:45;;;;;;;5.22;1.17;;;19.80;99.30;;;;;;5010995;28;20117;-67
2022/08/31 08:59:12;;;;;;;1.38;1.00;;;19.90;99.20;;;;;;5018852;28;20130;-67
2022/08/31 09:01:38;;;;;;;1.75;1.27;;;19.90;98.30;;;;;;5014103;28;20092;-67
2022/08/31 09:04:33;;;;;;;3.05;0.98;;;20.00;98.60;;;;;;5012153;28;20038;-67
2022/08/31 09:07:25;;;;;;;4.82;1.20;;;20.20;98.30;;;;;;5023212;28;20048;-67
2022/08/31 09:09:56;;;;;;;;;;;20.20;96.90;;;;;;5008729;28;20045;-67
2022/08/31 09:12:53;;;;;;;2.70;0.90;;;20.30;96.60;;;;;;5012582;28;19917;-67
2022/08/31 09:15:36;;;;;;;4.97;1.50;;;20.50;97.50;;;;;;5009573;28;20097;-68
2022/08/31 09:18:39;;;;;;;2.67;0.85;;;20.70;96.90;;;;;;5010646;28;20128;-67
2022/08/31 09:21:33;;;;;;;4.20;1.30;;;20.80;96.30;;;;;;5012166;28;20038;-67
2022/08/31 09:24:10;;;;;;;3.30;0.88;;;21.00;96.40;;;;;;5010475;28;20069;-68
2022/08/31 09:26:49;;;;;;;3.22;1.05;;;21.10;95.90;;;;;;5014922;28;20403;-67
2022/08/31 09:29:31;;;;;;;2.20;1.50;;;21.10;94.30;;;;;;5013125;28;20037;-67
2022/08/31 09:32:06;;;;;;;0.90;0.90;;;21.20;94.20;;;;;;5013501;28;20049;-68
2022/08/31 09:34:36;;;;;;;5.95;2.53;;;21.30;94.20;;;;;;5016955;28;20115;-68
2022/08/31 09:37:20;;;;;;;1.42;0.75;;;21.40;94.50;;;;;;4997051;28;20085;-68
2022/08/31 09:39:48;;;;;;;3.95;1.52;;;21.50;93.50;;;;;;4996438;28;20038;-67
2022/08/31 09:42:27;;;;;;;3.22;1.23;;;21.50;93.90;;;;;;4995833;28;20056;-68
2022/08/31 09:44:54;;;;;;;9.25;1.67;;;21.70;94.10;;;;;;4996809;28;20488;-67
2022/08/31 09:47:50;;;;;;;2.53;1.17;;;21.70;93.90;;;;;;5018706;28;20050;-68
2022/08/31 09:50:43;;;;;;;4.15;1.00;;;21.80;92.80;;;;;;5013152;28;20042;-68
2022/08/31 09:56:14;;;;;;;3.08;1.30;;;22.10;93.50;;;;;;5012594;28;20046;-68
2022/08/31 09:58:47;;;;;;;1.55;1.10;;;22.10;93.20;;;;;;4997604;28;20092;-68
2022/08/31 10:01:42;;;;;;;3.50;1.17;;;22.20;92.60;;;;;;4995841;28;20025;-68
2022/08/31 10:04:17;;;;;;;2.15;0.80;;;22.20;92.70;;;;;;4997790;28;20034;-68
2022/08/31 10:06:45;;;;;;;3.10;1.00;;;22.30;91.40;;;;;;5011894;28;20030;-68
2022/08/31 10:09:45;;;;;;;1.98;1.05;;;22.30;92.00;;;;;;4996370;28;20129;-68
2022/08/31 10:12:38;;;;;;;2.90;1.00;;;22.20;90.80;;;;;;4961284;28;20052;-67
2022/08/31 10:15:34;;;;;;;1.77;0.88;;;22.20;90.70;;;;;;4993608;28;20387;-67
2022/08/31 10:18:12;;;;;;;1.10;0.82;;;22.10;90.60;;;;;;4998548;28;20419;-68
2022/08/31 10:20:45;;;;;;;2.70;1.48;;;22.20;91.00;;;;;;5014377;28;20038;-67
2022/08/31 10:23:26;;;;;;;5.28;1.65;;;22.30;90.80;;;;;;5012852;28;20045;-68
2022/08/31 10:25:57;;;;;;;2.45;0.80;;;22.50;90.00;;;;;;5012547;28;20041;-68
2022/08/31 10:28:36;;;;;;;2.03;0.85;;;22.60;90.20;;;;;;5020845;28;20046;-68
2022/08/31 10:31:06;;;;;;;5.78;1.30;;;22.70;90.30;;;;;;4997800;28;20048;-68
2022/08/31 10:36:35;;;;;;;3.95;0.90;;;23.00;88.90;;;;;;5013907;28;20128;-68
2022/08/31 10:39:02;;;;;;;4.68;1.10;;;23.10;90.00;;;;;;5017901;28;20045;-67
2022/08/31 10:41:34;;;;;;;4.95;1.00;;;23.20;89.10;;;;;;5015337;28;20045;-67
2022/08/31 10:44:20;;;;;;;1.80;1.02;;;23.10;88.30;;;;;;5010931;28;20042;-68
2022/08/31 10:46:46;;;;;;;10.25;1.42;;;23.10;85.10;;;;;;5012838;28;20454;-67
2022/08/31 10:49:12;;;;;;;1.52;0.82;;;23.00;85.90;;;;;;4995380;28;20045;-68
2022/08/31 10:51:41;;;;;;;1.70;0.95;;;23.00;86.10;;;;;;5011983;28;20165;-68
2022/08/31 10:54:32;;;;;;;3.40;1.05;;;23.10;84.00;;;;;;5012101;28;20046;-68
2022/08/31 10:57:18;;;;;;;0.98;0.90;;;23.10;85.60;;;;;;4999617;28;20034;-68
2022/08/31 10:59:54;;;;;;;3.85;1.27;;;23.20;84.60;;;;;;5017272;28;20045;-68
2022/08/31 11:02:37;;;;;;;2.95;1.08;;;23.20;84.70;;;;;;5013434;28;20096;-68
2022/08/31 11:05:39;;;;;;;1.05;0.70;;;23.10;82.20;;;;;;5011804;28;20109;-68
2022/08/31 11:08:30;;;;;;;5.65;1.48;;;23.10;82.20;;;;;;5022339;28;20037;-68
2022/08/31 11:10:57;;;;;;;2.95;1.38;;;23.20;82.40;;;;;;5009420;28;20053;-68
2022/08/31 11:13:45;;;;;;;3.50;0.77;;;23.40;85.50;;;;;;4999405;28;20446;-68
2022/08/31 11:16:17;;;;;;;6.18;1.00;;;23.30;83.50;;;;;;5011685;28;20538;-68
2022/08/31 11:18:52;;;;;;;;;;;23.30;84.80;;;;;;4995355;28;20049;-68
2022/08/31 11:21:41;;;;;;;2.47;0.90;;;23.50;84.80;;;;;;5011650;28;20425;-69
2022/08/31 11:24:19;;;;;;;4.57;1.40;;;23.50;82.80;;;;;;4997417;28;20129;-68
2022/08/31 11:26:56;;;;;;;3.47;1.15;;;23.50;81.80;;;;;;5011316;28;20050;-68
2022/08/31 11:29:42;;;;;;;1.48;1.00;;;23.40;82.90;;;;;;4995656;28;20045;-68
2022/08/31 11:32:18;;;;;;;1.73;1.20;;;23.40;81.00;;;;;;4995282;28;20040;-68
2022/08/31 11:34:50;;;;;;;2.08;1.27;;;23.40;82.10;;;;;;5011815;28;20099;-68
2022/08/31 11:37:51;;;;;;;2.53;1.20;;;23.40;82.10;;;;;;5011623;28;20507;-68
2022/08/31 11:40:44;;;;;;;2.05;0.75;;;23.60;82.10;;;;;;5006762;28;20327;-68
2022/08/31 11:43:28;;;;;;;;;;;23.70;80.80;;;;;;5011701;28;20313;-68
2022/08/31 11:45:54;;;;;;;3.00;0.95;;;23.90;80.60;;;;;;5012277;28;19929;-68
2022/08/31 11:48:54;;;;;;;2.00;1.00;;;24.00;81.30;;;;;;4995074;28;20103;-68
2022/08/31 11:51:32;;;;;;;5.07;1.35;;;24.10;78.20;;;;;;4994430;28;20053;-68
2022/08/31 11:54:04;;;;;;;2.15;1.10;;;24.10;78.60;;;;;;5012378;28;20034;-68
2022/08/31 11:56:36;;;;;;;1.02;0.88;;;24.10;79.60;;;;;;5014303;28;20069;-68
2022/08/31 11:59:27;;;;;;;2.20;1.20;;;24.20;80.50;;;;;;5010394;28;20034;-68
2022/08/31 12:01:58;;;;;;;1.52;1.00;;;24.10;78.90;;;;;;5013369;28;20057;-68
2022/08/31 12:04:42;;;;;;;1.63;0.93;;;24.10;78.90;;;;;;5010346;28;20042;-68
2022/08/31 12:07:29;;;;;;;1.92;0.70;;;24.20;79.10;;;;;;5013108;28;20121;-68
2022/08/31 12:10:10;;;;;;;2.33;1.20;;;24.20;78.70;;;;;;5002676;28;20046;-68
2022/08/31 12:12:46;;;;;;;4.10;1.10;;;24.10;77.90;;;;;;5012238;28;20042;-68
2022/08/31 12:15:42;;;;;;;1.73;0.90;;;24.00;77.50;;;;;;5011695;28;20107;-68
2022/08/31 12:18:45;;;;;;;1.27;0.68;;;24.00;76.20;;;;;;5011077;28;20091;-68
2022/08/31 12:25:07;;;;;;;3.70;0.90;;;24.10;76.50;;;;;;5023586;28;20053;-68
2022/08/31 12:27:53;;;;;;;2.70;1.13;;;24.10;77.70;;;;;;4988185;28;20116;-68
2022/08/31 12:30:21;;;;;;;1.38;0.90;;;24.30;78.30;;;;;;5020425;28;20100;-68
2022/08/31 12:33:00;;;;;;;1.73;1.00;;;24.40;77.50;;;;;;5014818;28;20464;-68
2022/08/31 12:35:29;;;;;;;1.15;0.95;;;24.40;75.20;;;;;;5011964;28;20069;-67
2022/08/31 12:38:07;;;;;;;2.72;1.10;;;24.40;76.30;;;;;;4993275;28;20044;-68
2022/08/31 12:40:48;;;;;;;2.67;0.93;;;24.40;74.60;;;;;;5010922;28;20116;-68
2022/08/31 12:43:24;;;;;;;3.72;0.90;;;24.40;75.50;;;;;;5009392;28;20152;-68
2022/08/31 12:46:14;;;;;;;1.17;0.60;;;24.40;75.10;;;;;;5017098;28;20289;-68
2022/08/31 12:49:01;;;;;;;1.67;0.70;;;24.60;76.10;;;;;;5019989;28;20282;-68
2022/08/31 12:51:44;;;;;;;5.97;1.10;;;24.70;75.80;;;;;;5009745;28;20115;-68
2022/08/31 12:54:35;;;;;;;1.65;0.88;;;24.70;74.00;;;;;;4993095;28;20100;-68
2022/08/31 12:57:38;;;;;;;3.00;1.02;;;24.80;73.40;;;;;;5005025;28;20476;-68
2022/08/31 13:00:07;;;;;;;9.60;1.00;;;24.90;72.40;;;;;;4996649;28;20049;-68
2022/08/31 13:02:38;;;;;;;2.72;0.82;;;24.90;74.00;;;;;;5014361;28;20038;-68
2022/08/31 13:05:21;;;;;;;1.30;0.88;;;24.90;73.70;;;;;;4997702;28;20411;-68
2022/08/31 13:07:47;;;;;;;3.65;1.08;;;24.90;72.40;;;;;;5007150;28;20141;-68
2022/08/31 13:10:27;;;;;;;1.42;0.95;;;24.90;72.30;;;;;;5014271;28;20026;-68
2022/08/31 13:12:57;;;;;;;1.70;1.00;;;24.90;71.60;;;;;;5012758;28;20569;-68
2022/08/31 13:15:42;;;;;;;4.00;0.77;;;24.90;71.40;;;;;;4995867;28;20554;-68
2022/08/31 13:18:23;;;;;;;1.15;0.70;;;25.00;71.10;;;;;;5014881;28;20041;-68
2022/08/31 13:21:04;;;;;;;2.17;0.85;;;25.00;70.90;;;;;;5017693;28;20034;-68
2022/08/31 13:23:40;;;;;;;2.30;1.15;;;25.00;70.60;;;;;;4996489;28;20128;-68
2022/08/31 13:26:21;;;;;;;1.80;0.80;;;24.90;68.90;;;;;;5015855;28;20117;-68
2022/08/31 13:28:56;;;;;;;0.93;0.70;;;25.10;70.20;;;;;;5013104;28;20092;-68
2022/08/31 13:31:31;;;;;;;1.20;0.90;;;25.10;68.90;;;;;;5002599;28;20104;-68